Athelstane, WI (54104)

6:14 PM CDT on May 22, 2017 (GMT -0500)
Athelstane Township | | Change Station
Active Advisory: Flood Advisory Active Notice: Flood Advisory

Elev 966 ft 45.40 °N, 88.12 °W | Updated 2 seconds ago

Overcast
Overcast
55.4 °F
Feels Like 55.4 °F
N
3.5
Wind Variable Wind from WNW
Gusts 3.5 mph

Today
High -- | Low -- °F
--% Chance of Precip.
Yesterday
High -- | Low -- °F
Precip. -- in
Pressure 29.81 in
Visibility 10.0 miles
Clouds Few 5000 ft
Scattered Clouds 7000 ft
Dew Point 45 °F
Humidity 68%
Rainfall 0.00 in
Snow Depth Not available.
5:14 AM 8:24 PM
Waning Crescent, 12% visible
METAR KIMT 222254Z AUTO 27010KT 10SM FEW050 SCT070 14/04 A2980 RMK AO2 SLP094 T01390044
Pressure 29.81 in
Visibility 10.0 miles
Clouds Few 5000 ft
Scattered Clouds 7000 ft
Dew Point 45 °F
Humidity 68%
Rainfall 0.00 in
Snow Depth Not available.
5:14 AM 8:24 PM
Waning Crescent, 12% visible
METAR KIMT 222254Z AUTO 27010KT 10SM FEW050 SCT070 14/04 A2980 RMK AO2 SLP094 T01390044

Get Your Daily Forecast Email!

Thanks for signing up!

Be on the lookout for a verification email in your inbox.

You'll start receiving severe weather alerts in your inbox..

×

10-Day Weather Forecast

Almanac

Astronomy

May. 22, 2017 Rise Set
Actual Time
Civil Twilight
Nautical Twilight
Astronomical Twilight
Moon
Length of Visible Light
Length of Day
Tomorrow will be .
, % of the Moon is Illuminated

Today's Extremes

State Highs State Lows

Community

WunderPhotos

Category 6

Welcome to Category 6. This is the collective home for Weather Underground's featured writeups by Dr. Jeff Masters (right), Bob Henson (left), Chris Burt, and other regular contributors.

Nearby

Air Quality

  Air Quality AQ Index Pollutant
Not available.

Snow Depth

Station Depth Elevation

Earthquake Activity

City Distance Mag. Time & Date
Minimum magnitude displayed is 2.5.

Coastal Water Temperatures

Place Temperature

Stations

Nearby Weather Stations

Station Location Temp. Windchill Dew Point Humidity Wind Precip. Elev Updated Type
                   

Watches & Warnings

Flood Advisory
Issued: 12:04 PM CDT May. 21, 2017 – National Weather Service

The National Weather Service in Green Bay has issued a
* flood advisory for
the Menominee river near big Quinnesec falls dam
* at 11:10 am Sunday the flow was 7153 cfs.
* At 5000 cfs, while flooding is not expected... rivers flows are high
or expected to increase. Recreational interests should monitor the
river. Property owners adjacent to the river should consider
protecting shoreline equipment including docks piers and boats.


Lat... Lon 4588 8811 4579 8790 4572 8790 4579 8819





1204 PM CDT sun may 21 2017

The National Weather Service in Green Bay has issued a
* flood advisory for
the Menominee river near Kingsford
* at 11:30 am Sunday the flow was 6262 cfs.
* At 8000 cfs, flows at this rate downstream from the Kingsford dam
may impact some shoreline structures.


Lat... Lon 4583 8811 4581 8806 4576 8806 4581 8817